createdAt,value
2022-09-12T00:00:51.685Z,4.33
2022-09-12T00:02:13.831Z,3.90
2022-09-12T00:03:36.492Z,3.93
2022-09-12T00:04:59.108Z,3.93
2022-09-12T00:06:26.848Z,4.20
2022-09-12T00:07:49.104Z,4.30
2022-09-12T00:09:13.152Z,3.73
2022-09-12T00:10:39.636Z,3.90
2022-09-12T00:12:01.836Z,4.63
2022-09-12T00:13:23.831Z,3.70
2022-09-12T00:14:45.894Z,4.60
2022-09-12T00:16:08.481Z,4.93
2022-09-12T00:17:30.496Z,4.20
2022-09-12T00:18:53.627Z,3.60
2022-09-12T00:20:15.648Z,3.70
2022-09-12T00:21:39.730Z,3.50
2022-09-12T00:23:01.826Z,3.97
2022-09-12T00:24:23.834Z,4.20
2022-09-12T00:25:47.288Z,3.80
2022-09-12T00:27:09.294Z,4.23
2022-09-12T00:28:31.300Z,3.47
2022-09-12T00:29:53.535Z,3.47
2022-09-12T00:31:18.805Z,3.80
2022-09-12T00:32:41.131Z,3.70
2022-09-12T00:34:03.150Z,3.40
2022-09-12T00:35:25.195Z,4.10
2022-09-12T00:36:47.278Z,3.17
2022-09-12T00:38:09.337Z,4.00
2022-09-12T00:39:31.416Z,4.33
2022-09-12T00:40:53.408Z,3.10
2022-09-12T00:42:15.386Z,3.20
2022-09-12T00:43:40.933Z,3.00
2022-09-12T00:45:03.366Z,3.60
2022-09-12T00:46:43.202Z,3.57
2022-09-12T00:48:05.808Z,3.20
2022-09-12T00:49:33.366Z,3.13
2022-09-12T00:50:55.432Z,3.47
2022-09-12T00:52:34.814Z,3.87
2022-09-12T00:53:59.414Z,2.93
2022-09-12T00:55:31.508Z,3.30
2022-09-12T00:56:57.617Z,3.80
2022-09-12T00:58:27.195Z,3.67
2022-09-12T00:59:54.004Z,3.77
2022-09-12T01:01:16.128Z,3.90
2022-09-12T01:02:38.560Z,4.40
2022-09-12T01:04:01.790Z,4.87
2022-09-12T01:05:26.725Z,3.57
2022-09-12T01:06:49.840Z,4.17
2022-09-12T01:08:12.084Z,4.17
2022-09-12T01:09:35.324Z,4.20
2022-09-12T01:10:57.971Z,4.40
2022-09-12T01:12:21.018Z,4.43
2022-09-12T01:13:45.117Z,4.27
2022-09-12T01:15:08.088Z,4.03
2022-09-12T01:16:30.389Z,4.10
2022-09-12T01:18:08.089Z,5.37
2022-09-12T01:19:55.925Z,4.90
2022-09-12T01:21:34.696Z,4.70
2022-09-12T01:23:06.038Z,4.70
2022-09-12T01:25:09.854Z,5.50
2022-09-12T01:26:57.915Z,5.17
2022-09-12T01:28:37.867Z,4.93
2022-09-12T01:30:22.843Z,5.40
2022-09-12T01:31:57.185Z,5.30
2022-09-12T01:33:46.587Z,5.90
2022-09-12T01:35:21.101Z,5.90
2022-09-12T01:36:50.877Z,6.33
2022-09-12T01:38:31.398Z,5.93
2022-09-12T01:40:02.554Z,6.70
2022-09-12T01:41:30.448Z,6.60
2022-09-12T01:43:18.267Z,6.77
2022-09-12T01:44:51.619Z,6.47
2022-09-12T01:46:19.088Z,6.87
2022-09-12T01:47:50.033Z,6.33
2022-09-12T01:49:20.645Z,7.13
2022-09-12T01:51:23.419Z,6.13
2022-09-12T01:52:54.864Z,6.13
2022-09-12T01:54:26.435Z,6.17
2022-09-12T01:55:54.206Z,6.17
2022-09-12T01:57:27.459Z,5.90
2022-09-12T01:58:51.428Z,6.23
2022-09-12T02:00:14.148Z,7.93
2022-09-12T02:01:46.636Z,6.60
2022-09-12T02:03:17.094Z,6.53
2022-09-12T02:04:52.204Z,6.23
2022-09-12T02:06:25.466Z,7.60
2022-09-12T02:07:57.035Z,6.83
2022-09-12T02:09:23.815Z,6.70
2022-09-12T02:10:49.600Z,7.10
2022-09-12T02:12:15.657Z,7.17
2022-09-12T02:13:55.815Z,7.10
2022-09-12T02:15:20.570Z,8.07
2022-09-12T02:16:48.733Z,7.93
2022-09-12T02:18:14.539Z,8.40
2022-09-12T02:19:46.261Z,7.60
2022-09-12T02:21:08.785Z,7.40
2022-09-12T02:22:33.301Z,8.77
2022-09-12T02:23:59.304Z,8.40
2022-09-12T02:25:23.910Z,9.43
2022-09-12T02:26:56.476Z,8.53
2022-09-12T02:28:33.531Z,8.83
2022-09-12T02:29:55.685Z,8.90
2022-09-12T02:31:28.942Z,8.93
2022-09-12T02:33:13.527Z,9.23
2022-09-12T02:35:03.299Z,8.50
2022-09-12T02:36:37.482Z,9.30
2022-09-12T02:38:20.093Z,8.37
2022-09-12T02:39:45.176Z,7.73
2022-09-12T02:41:07.753Z,9.03
2022-09-12T02:42:29.826Z,8.50
2022-09-12T02:43:53.177Z,9.37
2022-09-12T02:45:16.208Z,8.80
2022-09-12T02:46:46.205Z,9.07
2022-09-12T02:48:13.702Z,8.90
2022-09-12T02:49:35.777Z,10.10
2022-09-12T02:50:58.167Z,9.73
2022-09-12T02:52:20.452Z,10.47
2022-09-12T02:53:43.092Z,9.20
2022-09-12T02:55:05.961Z,11.43
2022-09-12T02:56:30.322Z,10.10
2022-09-12T02:57:52.333Z,9.60
2022-09-12T02:59:18.661Z,9.30
2022-09-12T03:01:07.933Z,11.50
2022-09-12T03:02:51.501Z,11.33
2022-09-12T03:04:35.372Z,11.37
2022-09-12T03:06:31.385Z,11.53
2022-09-12T03:07:53.350Z,10.83
2022-09-12T03:09:39.155Z,11.30
2022-09-12T03:11:09.820Z,10.60
2022-09-12T03:13:04.977Z,10.93
2022-09-12T03:14:45.104Z,9.80
2022-09-12T03:16:20.772Z,11.07
2022-09-12T03:18:08.000Z,12.20
2022-09-12T03:19:45.340Z,12.00
2022-09-12T03:21:25.764Z,11.33
2022-09-12T03:23:02.942Z,11.80
2022-09-12T03:24:43.221Z,11.40
2022-09-12T03:26:21.568Z,12.30
2022-09-12T03:27:52.451Z,12.17
2022-09-12T03:29:15.331Z,12.03
2022-09-12T03:30:42.803Z,11.83
2022-09-12T03:32:04.848Z,11.10
2022-09-12T03:33:26.932Z,11.10
2022-09-12T03:34:48.930Z,10.83
2022-09-12T03:36:22.776Z,9.57
2022-09-12T03:37:44.966Z,10.30
2022-09-12T03:39:07.070Z,11.13
2022-09-12T03:40:29.069Z,10.40
2022-09-12T03:41:51.774Z,11.10
2022-09-12T03:43:13.800Z,11.33
2022-09-12T03:44:35.819Z,10.67
2022-09-12T03:45:57.853Z,11.70
2022-09-12T03:47:19.890Z,11.83
2022-09-12T03:48:41.951Z,10.20
2022-09-12T03:50:06.404Z,11.80
2022-09-12T03:51:28.824Z,10.50
2022-09-12T03:52:50.812Z,9.00
2022-09-12T03:54:13.521Z,11.40
2022-09-12T03:55:36.228Z,11.10
2022-09-12T03:56:58.290Z,10.30
2022-09-12T03:58:20.430Z,10.70
2022-09-12T03:59:42.424Z,10.37
2022-09-12T04:01:13.323Z,9.77
2022-09-12T04:02:35.564Z,9.80
2022-09-12T04:03:57.567Z,9.70
2022-09-12T04:05:19.584Z,11.37
2022-09-12T04:06:42.863Z,10.90
2022-09-12T04:08:05.268Z,10.03
2022-09-12T04:09:27.292Z,11.00
2022-09-12T04:10:49.264Z,10.40
2022-09-12T04:12:11.638Z,10.63
2022-09-12T04:13:35.424Z,8.80
2022-09-12T04:14:57.455Z,10.50
2022-09-12T04:16:19.613Z,10.33
2022-09-12T04:17:41.665Z,9.40
2022-09-12T04:19:03.861Z,10.00
2022-09-12T04:20:25.858Z,9.60
2022-09-12T04:21:47.858Z,9.50
2022-09-12T04:23:09.816Z,8.97
2022-09-12T04:24:32.137Z,8.50
2022-09-12T04:25:55.617Z,10.33
2022-09-12T04:27:17.694Z,10.07
2022-09-12T04:28:40.299Z,9.50
2022-09-12T04:30:02.768Z,9.70
2022-09-12T04:31:25.744Z,9.03
2022-09-12T04:32:47.739Z,9.00
2022-09-12T04:34:10.377Z,8.97
2022-09-12T04:35:34.592Z,9.70
2022-09-12T04:36:56.575Z,8.30
2022-09-12T04:38:18.553Z,9.30
2022-09-12T04:39:41.285Z,8.50
2022-09-12T04:41:13.995Z,9.53
2022-09-12T04:42:35.975Z,7.93
2022-09-12T04:44:03.437Z,9.60
2022-09-12T04:45:25.829Z,9.10
2022-09-12T04:46:47.931Z,9.60
2022-09-12T04:48:09.955Z,9.37
2022-09-12T04:49:31.999Z,9.80
2022-09-12T04:50:53.992Z,9.63
2022-09-12T04:52:15.965Z,9.73
2022-09-12T04:53:39.027Z,9.27
2022-09-12T04:55:01.040Z,9.13
2022-09-12T04:56:23.461Z,9.77
2022-09-12T04:57:45.518Z,9.63
2022-09-12T04:59:08.645Z,9.63
2022-09-12T05:00:30.645Z,8.53
2022-09-12T05:01:52.848Z,9.60
2022-09-12T05:03:14.865Z,8.97
2022-09-12T05:04:36.973Z,9.67
2022-09-12T05:05:59.355Z,8.50
2022-09-12T05:07:21.463Z,8.70
2022-09-12T05:08:43.989Z,8.87
2022-09-12T05:10:06.853Z,9.00
2022-09-12T05:11:59.644Z,9.57
2022-09-12T05:13:14.366Z,8.87
2022-09-12T05:14:36.632Z,8.20
2022-09-12T05:16:02.111Z,8.07
2022-09-12T05:17:24.185Z,9.77
2022-09-12T05:18:47.164Z,8.40
2022-09-12T05:20:12.724Z,8.37
2022-09-12T05:21:34.700Z,8.80
2022-09-12T05:22:56.706Z,9.47
2022-09-12T05:24:18.737Z,8.50
2022-09-12T05:25:47.721Z,8.40
2022-09-12T05:27:10.018Z,7.60
2022-09-12T05:28:38.085Z,6.80
2022-09-12T05:30:00.139Z,6.50
2022-09-12T05:31:24.645Z,6.87
2022-09-12T05:32:46.765Z,6.60
2022-09-12T05:34:10.104Z,6.00
2022-09-12T05:35:33.143Z,6.40
2022-09-12T05:36:55.165Z,5.90
2022-09-12T05:38:17.198Z,5.30
2022-09-12T05:39:39.235Z,5.50
2022-09-12T05:41:07.160Z,4.90
2022-09-12T05:42:30.437Z,5.23
2022-09-12T05:43:54.438Z,5.30
2022-09-12T05:45:16.781Z,5.10
2022-09-12T05:46:41.082Z,5.80
2022-09-12T05:48:03.175Z,5.13
2022-09-12T05:49:25.189Z,5.80
2022-09-12T05:50:47.221Z,5.10
2022-09-12T05:52:09.276Z,5.50
2022-09-12T05:53:31.581Z,6.20
2022-09-12T05:54:53.568Z,5.10
2022-09-12T05:56:20.968Z,5.83
2022-09-12T05:57:46.240Z,6.47
2022-09-12T05:59:14.567Z,5.90
2022-09-12T06:00:36.585Z,5.97
2022-09-12T06:01:58.645Z,6.67
2022-09-12T06:03:20.751Z,5.93
2022-09-12T06:04:43.499Z,7.83
2022-09-12T06:06:07.231Z,6.90
2022-09-12T06:07:29.651Z,7.07
2022-09-12T06:08:53.478Z,6.40
2022-09-12T06:10:16.119Z,8.00
2022-09-12T06:11:42.461Z,8.40
2022-09-12T06:13:04.437Z,6.40
2022-09-12T06:14:26.588Z,7.83
2022-09-12T06:15:48.588Z,7.30
2022-09-12T06:17:10.572Z,7.40
2022-09-12T06:18:33.200Z,7.83
2022-09-12T06:19:55.299Z,6.40
2022-09-12T06:21:18.077Z,7.40
2022-09-12T06:22:40.051Z,6.93
2022-09-12T06:24:02.640Z,7.30
2022-09-12T06:25:24.696Z,6.97
2022-09-12T06:26:48.031Z,7.63
2022-09-12T06:28:10.074Z,7.13
2022-09-12T06:29:32.619Z,6.40
2022-09-12T06:30:54.677Z,6.33
2022-09-12T06:32:16.726Z,6.30
2022-09-12T06:33:44.411Z,6.97
2022-09-12T06:35:06.685Z,6.90
2022-09-12T06:36:32.184Z,6.80
2022-09-12T06:37:54.662Z,6.73
2022-09-12T06:39:19.656Z,6.40
2022-09-12T06:40:47.228Z,6.77
2022-09-12T06:42:10.009Z,6.97
2022-09-12T06:43:32.413Z,6.73
2022-09-12T06:44:54.442Z,6.80
2022-09-12T06:46:16.633Z,6.43
2022-09-12T06:47:38.680Z,6.83
2022-09-12T06:49:01.073Z,5.80
2022-09-12T06:50:24.480Z,8.13
2022-09-12T06:51:46.600Z,6.30
2022-09-12T06:53:08.800Z,6.00
2022-09-12T06:54:31.090Z,7.43
2022-09-12T06:56:00.606Z,6.30
2022-09-12T06:57:24.490Z,5.47
2022-09-12T06:58:47.960Z,5.73
2022-09-12T07:00:10.796Z,6.70
2022-09-12T07:01:33.154Z,4.80
2022-09-12T07:02:56.593Z,5.53
2022-09-12T07:04:19.838Z,5.57
2022-09-12T07:05:41.883Z,5.10
2022-09-12T07:07:03.912Z,6.13
2022-09-12T07:08:25.930Z,5.97
2022-09-12T07:09:48.268Z,5.90
2022-09-12T07:11:11.929Z,6.03
2022-09-12T07:12:34.103Z,6.83
2022-09-12T07:13:58.003Z,5.80
2022-09-12T07:15:20.148Z,5.43
2022-09-12T07:16:42.849Z,5.17
2022-09-12T07:18:05.038Z,5.13
2022-09-12T07:19:27.028Z,4.97
2022-09-12T07:20:49.074Z,5.07
2022-09-12T07:22:11.069Z,5.13
2022-09-12T07:23:33.305Z,5.40
2022-09-12T07:24:57.603Z,5.27
2022-09-12T07:26:19.649Z,5.10
2022-09-12T07:27:41.691Z,5.03
2022-09-12T07:29:25.510Z,4.90
2022-09-12T07:30:47.172Z,5.13
2022-09-12T07:32:09.786Z,4.10
2022-09-12T07:33:31.769Z,4.13
2022-09-12T07:34:53.756Z,3.50
2022-09-12T07:36:18.042Z,3.77
2022-09-12T07:37:40.037Z,4.07
2022-09-12T07:39:02.310Z,3.90
2022-09-12T07:40:24.343Z,4.60
2022-09-12T07:41:46.368Z,3.00
2022-09-12T07:43:08.604Z,3.30
2022-09-12T07:44:30.612Z,3.77
2022-09-12T07:45:57.119Z,2.93
2022-09-12T07:47:19.153Z,2.53
2022-09-12T07:48:41.397Z,2.40
2022-09-12T07:50:03.619Z,2.60
2022-09-12T07:51:27.734Z,2.27
2022-09-12T07:52:50.474Z,2.00
2022-09-12T07:54:12.511Z,1.90
2022-09-12T07:55:34.482Z,1.60
2022-09-12T07:56:56.588Z,2.27
2022-09-12T07:58:18.604Z,1.90
2022-09-12T07:59:52.444Z,1.97
2022-09-12T08:01:17.173Z,2.10
2022-09-12T08:02:39.267Z,2.13
2022-09-12T08:04:01.596Z,1.60
2022-09-12T08:05:23.549Z,2.00
2022-09-12T08:06:45.540Z,1.93
2022-09-12T08:08:07.584Z,1.80
2022-09-12T08:09:29.950Z,1.73
2022-09-12T08:11:07.410Z,1.50
2022-09-12T08:12:29.770Z,1.20
2022-09-12T08:13:55.573Z,1.20
2022-09-12T08:15:17.866Z,1.10
2022-09-12T08:16:39.846Z,1.13
2022-09-12T08:18:01.953Z,1.20
2022-09-12T08:19:23.932Z,1.30
2022-09-12T08:20:45.964Z,1.40
2022-09-12T08:22:08.270Z,1.20
2022-09-12T08:23:31.089Z,1.00
2022-09-12T08:24:53.666Z,1.27
2022-09-12T08:26:16.058Z,1.00
2022-09-12T08:27:38.111Z,1.20
2022-09-12T08:29:00.649Z,1.30
2022-09-12T08:30:22.735Z,1.10
2022-09-12T08:31:46.403Z,1.17
2022-09-12T08:33:08.482Z,1.00
2022-09-12T08:34:30.458Z,1.03
2022-09-12T08:35:52.424Z,0.90
2022-09-12T08:37:14.772Z,0.80
2022-09-12T08:38:38.367Z,0.90
2022-09-12T08:40:00.449Z,1.30
2022-09-12T08:41:30.401Z,1.00
2022-09-12T08:43:29.240Z,1.10
2022-09-12T08:45:22.736Z,1.10
2022-09-12T08:46:48.091Z,0.90
2022-09-12T08:48:12.085Z,1.00
2022-09-12T08:49:44.377Z,1.00
2022-09-12T08:51:12.324Z,0.90
2022-09-12T08:52:38.266Z,0.80
2022-09-12T08:54:02.338Z,0.80
2022-09-12T08:55:37.737Z,0.70
2022-09-12T08:57:05.032Z,0.70
2022-09-12T08:58:28.971Z,0.83
2022-09-12T08:59:53.002Z,1.03
2022-09-12T09:01:51.890Z,0.90
2022-09-12T09:03:23.005Z,0.90
2022-09-12T09:04:56.619Z,0.87
2022-09-12T09:06:45.988Z,0.90
2022-09-12T09:08:20.154Z,1.00
2022-09-12T09:10:00.888Z,1.00
2022-09-12T09:11:37.891Z,0.80
2022-09-12T09:13:11.890Z,0.80
2022-09-12T09:15:03.495Z,0.80
2022-09-12T09:16:33.287Z,0.87
2022-09-12T09:18:02.034Z,0.80
2022-09-12T09:19:40.742Z,0.77
2022-09-12T09:21:11.963Z,0.80
2022-09-12T09:22:45.164Z,0.90
2022-09-12T09:24:12.947Z,0.70
2022-09-12T09:26:04.105Z,0.80
2022-09-12T09:27:42.020Z,0.93
2022-09-12T09:29:20.037Z,0.93
2022-09-12T09:30:44.743Z,0.90
2022-09-12T09:32:16.661Z,0.80
2022-09-12T09:33:38.719Z,0.83
2022-09-12T09:35:03.027Z,0.90
2022-09-12T09:36:35.259Z,0.90
2022-09-12T09:38:15.914Z,0.90
2022-09-12T09:39:43.969Z,0.80
2022-09-12T09:41:26.946Z,0.90
2022-09-12T09:42:57.625Z,1.10
2022-09-12T09:44:19.720Z,0.90
2022-09-12T09:45:44.572Z,0.90
2022-09-12T09:47:12.545Z,0.80
2022-09-12T09:48:42.073Z,0.80
2022-09-12T09:50:04.425Z,0.70
2022-09-12T09:51:33.857Z,1.00
2022-09-12T09:52:59.987Z,0.70
2022-09-12T09:54:26.740Z,0.80
2022-09-12T09:55:49.830Z,0.80
2022-09-12T09:57:36.167Z,0.80
2022-09-12T09:59:26.559Z,0.90
2022-09-12T10:00:48.911Z,0.80
2022-09-12T10:02:13.684Z,0.70
2022-09-12T10:03:40.399Z,0.87
2022-09-12T10:05:02.405Z,0.80
2022-09-12T10:06:32.787Z,0.60
2022-09-12T10:07:55.038Z,0.83
2022-09-12T10:09:22.025Z,0.60
2022-09-12T10:10:56.363Z,0.70
2022-09-12T10:12:28.782Z,0.93
2022-09-12T10:13:51.493Z,0.80
2022-09-12T10:15:20.538Z,1.10
2022-09-12T10:16:53.938Z,0.77
2022-09-12T10:18:42.763Z,0.60
2022-09-12T10:20:25.344Z,0.70
2022-09-12T10:21:57.049Z,0.73
2022-09-12T10:23:19.047Z,0.70
2022-09-12T10:24:43.529Z,0.90
2022-09-12T10:26:11.332Z,1.00
2022-09-12T10:27:33.925Z,0.77
2022-09-12T10:28:56.353Z,0.93
2022-09-12T10:30:21.607Z,1.07
2022-09-12T10:31:54.777Z,0.90
2022-09-12T10:33:17.080Z,0.80
2022-09-12T10:34:43.623Z,0.90
2022-09-12T10:36:05.966Z,0.87
2022-09-12T10:37:37.284Z,0.83
2022-09-12T10:39:01.584Z,1.03
2022-09-12T10:40:51.020Z,0.83
2022-09-12T10:42:18.336Z,0.93
2022-09-12T10:43:43.834Z,0.80
2022-09-12T10:45:17.606Z,0.70
2022-09-12T10:46:40.330Z,0.80
2022-09-12T10:48:23.781Z,0.87
2022-09-12T10:49:45.894Z,0.80
2022-09-12T10:51:25.707Z,0.70
2022-09-12T10:52:47.828Z,0.70
2022-09-12T10:54:13.109Z,0.73
2022-09-12T10:55:35.900Z,0.90
2022-09-12T10:57:05.824Z,0.70
2022-09-12T10:58:30.828Z,0.60
2022-09-12T11:00:03.764Z,0.80
2022-09-12T11:01:42.661Z,1.20
2022-09-12T11:03:34.291Z,0.87
2022-09-12T11:05:02.978Z,0.83
2022-09-12T11:06:55.128Z,0.80
2022-09-12T11:08:59.404Z,0.70
2022-09-12T11:11:18.678Z,0.80
2022-09-12T11:12:43.371Z,0.60
2022-09-12T11:14:39.408Z,0.60
2022-09-12T11:16:31.435Z,0.60
2022-09-12T11:18:01.039Z,1.73
2022-09-12T11:19:47.567Z,1.30
2022-09-12T11:21:16.109Z,0.80
2022-09-12T11:23:05.952Z,0.77
2022-09-12T11:24:53.646Z,0.63
2022-09-12T11:27:02.881Z,0.67
2022-09-12T11:28:54.456Z,0.67
2022-09-12T11:30:18.211Z,0.77
2022-09-12T11:31:46.045Z,0.80
2022-09-12T11:33:15.220Z,0.70
2022-09-12T11:35:12.800Z,1.67
2022-09-12T11:37:08.604Z,0.97
2022-09-12T11:38:50.228Z,1.00
2022-09-12T11:40:33.224Z,0.90
2022-09-12T11:42:04.198Z,0.70
2022-09-12T11:43:54.472Z,1.17
2022-09-12T11:45:24.644Z,0.73
2022-09-12T11:46:51.578Z,0.77
2022-09-12T11:48:23.800Z,0.60
2022-09-12T11:49:50.841Z,0.63
2022-09-12T11:51:19.499Z,0.73
2022-09-12T11:52:41.552Z,0.60
2022-09-12T11:54:18.498Z,0.67
2022-09-12T11:56:09.360Z,0.70
2022-09-12T11:57:49.561Z,0.60
2022-09-12T11:59:42.391Z,0.90
2022-09-12T12:01:17.982Z,0.90
2022-09-12T12:02:56.059Z,0.80
2022-09-12T12:04:24.398Z,0.90
2022-09-12T12:05:54.325Z,0.80
2022-09-12T12:07:16.320Z,0.70
2022-09-12T12:08:41.435Z,1.13
2022-09-12T12:10:05.412Z,0.63
2022-09-12T12:11:37.081Z,0.70
2022-09-12T12:13:03.216Z,0.70
2022-09-12T12:14:38.255Z,1.00
2022-09-12T12:16:07.938Z,0.80
2022-09-12T12:17:30.411Z,0.70
2022-09-12T12:19:12.405Z,0.80
2022-09-12T12:20:35.167Z,0.90
2022-09-12T12:22:14.501Z,1.10
2022-09-12T12:23:36.910Z,1.10
2022-09-12T12:25:06.687Z,0.90
2022-09-12T12:26:40.791Z,1.03
2022-09-12T12:28:05.418Z,0.80
2022-09-12T12:29:45.658Z,0.60
2022-09-12T12:31:08.863Z,0.90
2022-09-12T12:32:30.947Z,0.60
2022-09-12T12:33:55.242Z,0.80
2022-09-12T12:35:36.480Z,0.83
2022-09-12T12:37:03.172Z,1.00
2022-09-12T12:38:30.905Z,0.90
2022-09-12T12:40:21.836Z,0.83
2022-09-12T12:41:45.270Z,0.90
2022-09-12T12:43:32.112Z,0.80
2022-09-12T12:44:54.208Z,0.90
2022-09-12T12:46:22.616Z,0.70
2022-09-12T12:48:16.878Z,0.77
2022-09-12T12:49:39.008Z,1.00
2022-09-12T12:51:36.564Z,0.87
2022-09-12T12:53:05.069Z,0.80
2022-09-12T12:54:29.889Z,1.03
2022-09-12T12:55:54.819Z,0.90
2022-09-12T12:57:23.223Z,0.93
2022-09-12T12:58:47.600Z,1.00
2022-09-12T13:00:21.257Z,0.90
2022-09-12T13:01:55.393Z,0.73
2022-09-12T13:03:37.105Z,0.73
2022-09-12T13:05:03.286Z,0.90
2022-09-12T13:06:36.402Z,0.70
2022-09-12T13:08:03.660Z,0.80
2022-09-12T13:09:39.879Z,0.80
2022-09-12T13:11:07.300Z,0.90
2022-09-12T13:12:43.832Z,0.80
2022-09-12T13:14:27.314Z,0.90
2022-09-12T13:15:51.599Z,0.70
2022-09-12T13:17:37.453Z,0.80
2022-09-12T13:19:18.167Z,0.80
2022-09-12T13:20:59.971Z,0.70
2022-09-12T13:22:24.668Z,0.83
2022-09-12T13:24:02.497Z,0.70
2022-09-12T13:25:29.108Z,0.70
2022-09-12T13:26:51.090Z,0.77
2022-09-12T13:28:13.032Z,0.70
2022-09-12T13:29:35.044Z,0.80
2022-09-12T13:31:17.305Z,0.80
2022-09-12T13:32:39.656Z,0.93
2022-09-12T13:34:05.670Z,0.80
2022-09-12T13:35:44.702Z,0.70
2022-09-12T13:37:28.018Z,0.70
2022-09-12T13:39:03.077Z,0.70
2022-09-12T13:40:30.133Z,0.70
2022-09-12T13:42:16.804Z,0.90
2022-09-12T13:43:44.456Z,0.67
2022-09-12T13:45:17.530Z,0.80
2022-09-12T13:46:39.700Z,0.73
2022-09-12T13:48:03.271Z,0.60
2022-09-12T13:49:28.322Z,0.70
2022-09-12T13:50:57.748Z,0.90
2022-09-12T13:52:23.960Z,0.70
2022-09-12T13:53:48.010Z,0.77
2022-09-12T13:55:29.333Z,0.80
2022-09-12T13:56:51.348Z,0.70
2022-09-12T13:58:23.819Z,0.90
2022-09-12T13:59:49.500Z,0.80
2022-09-12T14:01:15.817Z,0.90
2022-09-12T14:02:40.442Z,1.20
2022-09-12T14:04:49.518Z,0.80
2022-09-12T14:06:16.333Z,1.10
2022-09-12T14:07:56.097Z,0.87
2022-09-12T14:09:38.540Z,0.90
2022-09-12T14:12:26.182Z,1.00
2022-09-12T14:13:48.482Z,0.90
2022-09-12T14:15:23.460Z,0.90
2022-09-12T14:16:45.466Z,1.00
2022-09-12T14:18:08.655Z,0.80
2022-09-12T14:19:32.212Z,1.00
2022-09-12T14:20:57.369Z,0.70
2022-09-12T14:22:19.587Z,1.20
2022-09-12T14:23:44.996Z,0.90
2022-09-12T14:25:10.190Z,0.80
2022-09-12T14:26:36.830Z,1.00
2022-09-12T14:27:59.068Z,1.10
2022-09-12T14:29:22.452Z,0.90
2022-09-12T14:31:07.460Z,1.10
2022-09-12T14:32:29.544Z,1.10
2022-09-12T14:33:57.080Z,1.00
2022-09-12T14:35:20.580Z,1.70
2022-09-12T14:36:50.137Z,1.00
2022-09-12T14:38:15.086Z,1.13
2022-09-12T14:39:42.877Z,0.90
2022-09-12T14:41:09.408Z,1.10
2022-09-12T14:42:32.271Z,1.30
2022-09-12T14:44:00.384Z,1.03
2022-09-12T14:45:31.729Z,0.90
2022-09-12T14:46:54.262Z,1.50
2022-09-12T14:48:19.018Z,1.03
2022-09-12T14:49:42.096Z,0.90
2022-09-12T14:51:05.282Z,1.00
2022-09-12T14:52:34.192Z,1.13
2022-09-12T14:53:56.254Z,1.10
2022-09-12T14:55:31.604Z,1.07
2022-09-12T14:56:54.951Z,1.33
2022-09-12T14:58:26.254Z,1.23
2022-09-12T14:59:48.311Z,1.00
2022-09-12T15:01:13.408Z,0.90
2022-09-12T15:02:35.412Z,1.00
2022-09-12T15:03:57.823Z,1.23
2022-09-12T15:05:24.601Z,1.23
2022-09-12T15:06:46.656Z,1.00
2022-09-12T15:08:15.853Z,1.10
2022-09-12T15:09:37.917Z,1.50
2022-09-12T15:11:00.758Z,1.20
2022-09-12T15:12:23.343Z,1.40
2022-09-12T15:13:45.410Z,1.37
2022-09-12T15:15:18.771Z,1.00
2022-09-12T15:16:41.040Z,1.10
2022-09-12T15:18:06.572Z,0.97
2022-09-12T15:19:30.303Z,0.93
2022-09-12T15:21:07.645Z,1.00
2022-09-12T15:22:29.713Z,1.33
2022-09-12T15:23:52.419Z,1.00
2022-09-12T15:25:14.490Z,1.00
2022-09-12T15:26:36.510Z,1.10
2022-09-12T15:27:58.788Z,1.00
2022-09-12T15:29:20.806Z,1.20
2022-09-12T15:30:43.025Z,1.00
2022-09-12T15:32:08.539Z,1.20
2022-09-12T15:33:30.660Z,0.90
2022-09-12T15:34:53.688Z,1.00
2022-09-12T15:36:18.680Z,1.10
2022-09-12T15:37:40.698Z,1.00
2022-09-12T15:39:02.787Z,1.30
2022-09-12T15:40:26.327Z,1.10
2022-09-12T15:41:48.659Z,1.60
2022-09-12T15:43:14.118Z,1.83
2022-09-12T15:44:36.103Z,1.50
2022-09-12T15:45:59.307Z,0.97
2022-09-12T15:47:23.033Z,0.90
2022-09-12T15:48:45.440Z,1.37
2022-09-12T15:50:07.773Z,1.43
2022-09-12T15:51:29.793Z,1.13
2022-09-12T15:52:51.835Z,1.40
2022-09-12T15:54:15.038Z,1.10
2022-09-12T15:55:37.369Z,1.27
2022-09-12T15:56:59.451Z,1.20
2022-09-12T15:58:21.515Z,1.13
2022-09-12T15:59:43.486Z,1.17
2022-09-12T16:01:05.679Z,1.20
2022-09-12T16:02:27.672Z,1.60
2022-09-12T16:03:49.661Z,1.20
2022-09-12T16:05:16.294Z,1.50
2022-09-12T16:06:38.279Z,1.20
2022-09-12T16:08:00.257Z,1.50
2022-09-12T16:09:23.279Z,1.47
2022-09-12T16:10:47.107Z,1.30
2022-09-12T16:12:09.911Z,1.60
2022-09-12T16:13:33.524Z,1.10
2022-09-12T16:14:55.499Z,1.10
2022-09-12T16:16:17.545Z,1.43
2022-09-12T16:17:39.647Z,1.20
2022-09-12T16:19:01.659Z,1.50
2022-09-12T16:20:24.464Z,1.43
2022-09-12T16:21:46.649Z,1.33
2022-09-12T16:23:12.430Z,1.40
2022-09-12T16:24:34.419Z,1.90
2022-09-12T16:26:05.415Z,1.60
2022-09-12T16:27:27.518Z,1.90
2022-09-12T16:28:58.313Z,1.67
2022-09-12T16:30:20.373Z,1.53
2022-09-12T16:31:42.357Z,1.50
2022-09-12T16:33:04.430Z,1.43
2022-09-12T16:34:26.505Z,1.33
2022-09-12T16:35:48.531Z,1.23
2022-09-12T16:37:10.645Z,1.40
2022-09-12T16:38:33.818Z,1.10
2022-09-12T16:39:55.904Z,1.30
2022-09-12T16:41:19.807Z,1.13
2022-09-12T16:42:43.798Z,1.33
2022-09-12T16:44:06.032Z,1.20
2022-09-12T16:45:28.005Z,1.13
2022-09-12T16:46:51.098Z,1.37
2022-09-12T16:48:13.477Z,1.40
2022-09-12T16:49:35.468Z,1.70
2022-09-12T16:51:04.031Z,1.57
2022-09-12T16:52:26.361Z,1.27
2022-09-12T16:53:49.390Z,1.07
2022-09-12T16:55:11.399Z,1.37
2022-09-12T16:56:33.375Z,1.43
2022-09-12T16:57:55.888Z,1.03
2022-09-12T16:59:17.907Z,1.60
2022-09-12T17:00:40.017Z,1.50
2022-09-12T17:02:02.373Z,1.40
2022-09-12T17:03:24.457Z,1.60
2022-09-12T17:04:46.486Z,1.67
2022-09-12T17:06:10.990Z,1.70
2022-09-12T17:07:34.321Z,1.43
2022-09-12T17:09:04.180Z,1.93
2022-09-12T17:10:27.202Z,1.50
2022-09-12T17:11:50.249Z,1.83
2022-09-12T17:13:12.338Z,2.70
2022-09-12T17:14:34.458Z,1.93
2022-09-12T17:15:57.040Z,1.73
2022-09-12T17:17:19.104Z,2.10
2022-09-12T17:18:41.465Z,1.90
2022-09-12T17:20:03.669Z,1.57
2022-09-12T17:21:25.930Z,2.00
2022-09-12T17:22:47.901Z,2.27
2022-09-12T17:24:10.008Z,2.60
2022-09-12T17:25:32.096Z,2.77
2022-09-12T17:26:54.246Z,2.43
2022-09-12T17:28:16.570Z,2.50
2022-09-12T17:29:38.730Z,2.50
2022-09-12T17:31:03.404Z,2.10
2022-09-12T17:32:25.455Z,2.40
2022-09-12T17:33:47.738Z,2.70
2022-09-12T17:35:10.994Z,2.70
2022-09-12T17:36:34.025Z,2.30
2022-09-12T17:37:56.069Z,2.20
2022-09-12T17:39:18.389Z,2.47
2022-09-12T17:40:58.625Z,2.23
2022-09-12T17:42:22.786Z,2.30
2022-09-12T17:43:46.394Z,2.10
2022-09-12T17:45:08.977Z,2.30
2022-09-12T17:46:34.919Z,1.97
2022-09-12T17:47:57.344Z,1.93
2022-09-12T17:49:22.031Z,2.10
2022-09-12T17:50:44.258Z,1.97
2022-09-12T17:52:06.339Z,2.20
2022-09-12T17:53:28.310Z,1.77
2022-09-12T17:54:50.288Z,1.60
2022-09-12T17:56:12.293Z,2.10
2022-09-12T17:57:34.464Z,2.20
2022-09-12T17:58:58.166Z,2.07
2022-09-12T18:00:40.162Z,1.90
2022-09-12T18:02:16.064Z,2.23
2022-09-12T18:03:38.542Z,1.90
2022-09-12T18:05:03.381Z,2.87
2022-09-12T18:06:25.467Z,1.93
2022-09-12T18:07:47.440Z,2.27
2022-09-12T18:09:09.836Z,2.10
2022-09-12T18:10:32.426Z,2.23
2022-09-12T18:11:54.736Z,1.77
2022-09-12T18:13:16.835Z,2.20
2022-09-12T18:14:38.836Z,2.47
2022-09-12T18:16:09.599Z,2.43
2022-09-12T18:17:31.920Z,2.57
2022-09-12T18:18:54.347Z,2.70
2022-09-12T18:20:16.676Z,2.90
2022-09-12T18:21:38.782Z,3.20
2022-09-12T18:23:00.830Z,2.33
2022-09-12T18:24:23.252Z,2.20
2022-09-12T18:25:45.220Z,2.50
2022-09-12T18:27:07.342Z,2.83
2022-09-12T18:28:31.699Z,2.60
2022-09-12T18:30:17.210Z,3.13
2022-09-12T18:31:36.342Z,3.40
2022-09-12T18:32:58.378Z,3.13
2022-09-12T18:34:20.480Z,3.70
2022-09-12T18:35:42.508Z,3.00
2022-09-12T18:37:05.284Z,2.23
2022-09-12T18:38:27.259Z,2.80
2022-09-12T18:39:49.329Z,2.37
2022-09-12T18:41:17.394Z,2.60
2022-09-12T18:42:39.432Z,2.10
2022-09-12T18:44:02.262Z,2.37
2022-09-12T18:45:24.325Z,2.23
2022-09-12T18:46:46.357Z,2.13
2022-09-12T18:48:08.380Z,2.20
2022-09-12T18:49:30.624Z,2.17
2022-09-12T18:50:52.596Z,1.83
2022-09-12T18:52:15.241Z,2.20
2022-09-12T18:53:38.206Z,2.20
2022-09-12T18:55:00.178Z,2.10
2022-09-12T18:56:32.862Z,2.70
2022-09-12T18:57:55.738Z,2.87
2022-09-12T18:59:17.843Z,1.80
2022-09-12T19:00:40.870Z,1.87
2022-09-12T19:02:03.038Z,2.00
2022-09-12T19:03:25.238Z,2.23
2022-09-12T19:04:47.246Z,2.10
2022-09-12T19:06:17.524Z,2.57
2022-09-12T19:07:39.876Z,2.37
2022-09-12T19:09:07.380Z,2.30
2022-09-12T19:10:30.914Z,2.77
2022-09-12T19:11:53.005Z,2.80
2022-09-12T19:13:15.062Z,2.73
2022-09-12T19:14:37.211Z,3.10
2022-09-12T19:16:01.301Z,3.00
2022-09-12T19:17:23.335Z,2.90
2022-09-12T19:18:48.014Z,3.47
2022-09-12T19:20:10.189Z,2.70